createdAt,value
2018-08-12T00:00:10.423Z,5.93
2018-08-12T00:02:38.841Z,6.30
2018-08-12T00:05:07.239Z,5.23
2018-08-12T00:07:36.381Z,5.97
2018-08-12T00:10:07.074Z,5.50
2018-08-12T00:12:35.490Z,5.43
2018-08-12T00:15:04.776Z,5.57
2018-08-12T00:17:33.201Z,5.90
2018-08-12T00:20:01.629Z,5.90
2018-08-12T00:22:30.034Z,5.90
2018-08-12T00:24:58.446Z,6.00
2018-08-12T00:27:26.878Z,5.83
2018-08-12T00:29:55.268Z,5.60
2018-08-12T00:32:23.690Z,5.87
2018-08-12T00:34:52.069Z,5.87
2018-08-12T00:37:20.498Z,6.20
2018-08-12T00:39:48.863Z,6.37
2018-08-12T00:42:17.344Z,5.90
2018-08-12T00:44:45.753Z,6.60
2018-08-12T00:47:14.177Z,6.27
2018-08-12T00:49:42.585Z,6.00
2018-08-12T00:52:17.780Z,6.60
2018-08-12T00:54:46.188Z,6.47
2018-08-12T00:57:14.673Z,7.17
2018-08-12T00:59:43.097Z,6.70
2018-08-12T01:02:11.470Z,6.70
2018-08-12T01:04:39.881Z,6.90
2018-08-12T01:07:08.332Z,6.37
2018-08-12T01:09:36.819Z,6.37
2018-08-12T01:12:06.149Z,6.93
2018-08-12T01:14:34.582Z,6.73
2018-08-12T01:17:03.042Z,6.87
2018-08-12T01:19:31.493Z,6.83
2018-08-12T01:21:59.872Z,6.80
2018-08-12T01:24:28.369Z,6.60
2018-08-12T01:26:56.829Z,7.30
2018-08-12T01:29:25.425Z,6.53
2018-08-12T01:31:53.900Z,6.90
2018-08-12T01:34:22.389Z,6.60
2018-08-12T01:36:50.775Z,6.60
2018-08-12T01:39:19.213Z,6.60
2018-08-12T01:41:47.649Z,6.67
2018-08-12T01:44:16.081Z,6.47
2018-08-12T01:46:44.547Z,6.63
2018-08-12T01:49:12.990Z,7.23
2018-08-12T01:51:41.413Z,7.10
2018-08-12T01:54:10.431Z,6.70
2018-08-12T01:56:38.820Z,6.77
2018-08-12T01:59:07.277Z,6.73
2018-08-12T02:01:35.709Z,7.30
2018-08-12T02:04:04.251Z,7.03
2018-08-12T02:06:32.664Z,6.77
2018-08-12T02:09:01.142Z,7.00
2018-08-12T02:11:29.529Z,7.17
2018-08-12T02:13:57.954Z,7.07
2018-08-12T02:16:26.382Z,7.20
2018-08-12T02:18:54.765Z,7.27
2018-08-12T02:21:23.179Z,6.93
2018-08-12T02:23:51.565Z,7.13
2018-08-12T02:26:20.541Z,7.37
2018-08-12T02:28:48.931Z,7.20
2018-08-12T02:31:17.316Z,7.50
2018-08-12T02:33:45.758Z,7.30
2018-08-12T02:36:14.878Z,7.47
2018-08-12T02:38:43.300Z,7.50
2018-08-12T02:41:11.749Z,7.20
2018-08-12T02:43:40.141Z,7.57
2018-08-12T02:46:08.652Z,7.60
2018-08-12T02:48:37.129Z,8.07
2018-08-12T02:51:05.766Z,7.57
2018-08-12T02:53:34.473Z,7.83
2018-08-12T02:56:02.913Z,7.80
2018-08-12T02:58:31.334Z,7.80
2018-08-12T03:00:59.812Z,7.73
2018-08-12T03:03:28.284Z,7.77
2018-08-12T03:05:57.540Z,7.13
2018-08-12T03:08:26.085Z,7.30
2018-08-12T03:10:54.485Z,7.80
2018-08-12T03:13:22.969Z,7.47
2018-08-12T03:15:52.191Z,7.80
2018-08-12T03:18:20.703Z,7.50
2018-08-12T03:20:49.082Z,7.60
2018-08-12T03:23:17.485Z,6.67
2018-08-12T03:25:45.925Z,7.00
2018-08-12T03:28:14.346Z,6.93
2018-08-12T03:30:42.762Z,7.93
2018-08-12T03:33:11.126Z,7.40
2018-08-12T03:35:39.638Z,7.20
2018-08-12T03:38:08.070Z,7.53
2018-08-12T03:40:36.534Z,7.60
2018-08-12T03:43:05.169Z,7.20
2018-08-12T03:45:33.621Z,7.23
2018-08-12T03:48:02.074Z,6.87
2018-08-12T03:50:30.534Z,7.20
2018-08-12T03:52:59.029Z,6.83
2018-08-12T03:55:27.449Z,7.10
2018-08-12T03:57:55.941Z,7.03
2018-08-12T04:00:24.341Z,6.67
2018-08-12T04:02:52.783Z,6.53
2018-08-12T04:05:21.246Z,7.00
2018-08-12T04:07:49.654Z,6.40
2018-08-12T04:10:18.552Z,6.27
2018-08-12T04:12:46.956Z,5.93
2018-08-12T04:15:15.601Z,5.97
2018-08-12T04:17:45.361Z,6.33
2018-08-12T04:20:13.759Z,6.33
2018-08-12T04:22:42.321Z,5.90
2018-08-12T04:25:10.820Z,5.87
2018-08-12T04:27:39.222Z,5.60
2018-08-12T04:30:09.127Z,5.63
2018-08-12T04:32:37.691Z,5.63
2018-08-12T04:35:06.791Z,5.77
2018-08-12T04:37:35.182Z,6.03
2018-08-12T04:40:03.696Z,5.50
2018-08-12T04:42:32.246Z,5.60
2018-08-12T04:45:00.630Z,5.67
2018-08-12T04:47:29.123Z,5.10
2018-08-12T04:49:57.592Z,5.20
2018-08-12T04:52:26.103Z,5.53
2018-08-12T04:54:54.504Z,5.50
2018-08-12T04:57:22.923Z,5.47
2018-08-12T04:59:51.355Z,5.30
2018-08-12T05:02:19.821Z,5.20
2018-08-12T05:04:48.267Z,5.17
2018-08-12T05:07:16.676Z,5.30
2018-08-12T05:09:45.149Z,4.90
2018-08-12T05:12:13.596Z,4.50
2018-08-12T05:14:48.625Z,4.80
2018-08-12T05:17:17.036Z,4.70
2018-08-12T05:19:45.457Z,4.87
2018-08-12T05:22:14.686Z,4.80
2018-08-12T05:24:43.284Z,4.60
2018-08-12T05:27:11.671Z,5.10
2018-08-12T05:29:40.157Z,5.10
2018-08-12T05:32:08.593Z,4.87
2018-08-12T05:34:37.676Z,5.03
2018-08-12T05:37:06.101Z,4.90
2018-08-12T05:39:34.501Z,4.63
2018-08-12T05:42:03.089Z,4.83
2018-08-12T05:44:31.486Z,4.63
2018-08-12T05:46:59.924Z,4.43
2018-08-12T05:49:28.340Z,4.37
2018-08-12T05:51:56.713Z,4.20
2018-08-12T05:54:25.126Z,4.67
2018-08-12T05:56:53.627Z,3.87
2018-08-12T05:59:22.046Z,4.50
2018-08-12T06:01:50.413Z,4.37
2018-08-12T06:04:18.915Z,4.10
2018-08-12T06:06:47.312Z,4.40
2018-08-12T06:09:15.742Z,4.07
2018-08-12T06:11:44.193Z,4.23
2018-08-12T06:14:12.654Z,3.97
2018-08-12T06:16:41.096Z,3.70
2018-08-12T06:19:09.539Z,4.10
2018-08-12T06:21:38.081Z,3.80
2018-08-12T06:24:06.649Z,4.00
2018-08-12T06:26:35.080Z,4.10
2018-08-12T06:29:03.565Z,3.50
2018-08-12T06:31:32.061Z,3.70
2018-08-12T06:34:00.455Z,4.00
2018-08-12T06:36:28.937Z,3.77
2018-08-12T06:38:57.338Z,3.73
2018-08-12T06:41:25.894Z,3.58
2018-08-12T06:43:54.383Z,3.27
2018-08-12T06:46:22.793Z,3.60
2018-08-12T06:48:51.914Z,3.67
2018-08-12T06:51:20.392Z,3.30
2018-08-12T06:53:48.800Z,3.40
2018-08-12T06:56:17.601Z,3.80
2018-08-12T06:58:45.998Z,3.40
2018-08-12T07:01:14.426Z,3.47
2018-08-12T07:03:42.842Z,3.40
2018-08-12T07:06:11.296Z,3.13
2018-08-12T07:08:39.813Z,3.00
2018-08-12T07:11:08.228Z,3.03
2018-08-12T07:13:36.707Z,3.03
2018-08-12T07:16:05.262Z,3.03
2018-08-12T07:18:33.674Z,2.70
2018-08-12T07:21:02.079Z,2.87
2018-08-12T07:23:33.397Z,2.90
2018-08-12T07:26:02.033Z,2.80
2018-08-12T07:28:31.529Z,2.70
2018-08-12T07:31:00.394Z,2.80
2018-08-12T07:33:28.912Z,3.10
2018-08-12T07:35:57.287Z,3.20
2018-08-12T07:38:26.865Z,3.00
2018-08-12T07:40:55.242Z,2.90
2018-08-12T07:43:23.759Z,2.80
2018-08-12T07:45:52.228Z,3.00
2018-08-12T07:48:20.626Z,2.70
2018-08-12T07:50:49.063Z,2.70
2018-08-12T07:53:17.513Z,2.80
2018-08-12T07:55:46.083Z,2.57
2018-08-12T07:58:14.533Z,2.30
2018-08-12T08:00:42.980Z,2.50
2018-08-12T08:03:11.436Z,2.73
2018-08-12T08:05:39.806Z,2.63
2018-08-12T08:08:08.275Z,2.40
2018-08-12T08:10:36.805Z,2.60
2018-08-12T08:13:05.953Z,2.60
2018-08-12T08:15:34.344Z,2.50
2018-08-12T08:18:02.999Z,2.50
2018-08-12T08:20:31.448Z,2.40
2018-08-12T08:23:00.235Z,2.40
2018-08-12T08:25:29.366Z,2.30
2018-08-12T08:27:57.816Z,2.10
2018-08-12T08:30:26.442Z,2.20
2018-08-12T08:32:54.916Z,2.10
2018-08-12T08:35:23.409Z,2.00
2018-08-12T08:37:51.921Z,2.13
2018-08-12T08:40:20.552Z,1.90
2018-08-12T08:42:48.986Z,1.90
2018-08-12T08:45:19.661Z,1.83
2018-08-12T08:47:49.224Z,1.83
2018-08-12T08:50:18.733Z,1.50
2018-08-12T08:52:47.186Z,1.63
2018-08-12T08:55:16.215Z,1.90
2018-08-12T08:57:45.262Z,1.80
2018-08-12T09:00:15.838Z,1.70
2018-08-12T09:02:46.521Z,1.70
2018-08-12T09:05:15.617Z,1.67
2018-08-12T09:07:44.901Z,1.80
2018-08-12T09:10:14.748Z,1.70
2018-08-12T09:12:43.221Z,1.53
2018-08-12T09:15:13.699Z,1.77
2018-08-12T09:17:42.867Z,1.60
2018-08-12T09:20:13.428Z,1.63
2018-08-12T09:22:42.129Z,1.60
2018-08-12T09:25:11.342Z,1.50
2018-08-12T09:27:40.127Z,1.40
2018-08-12T09:30:13.402Z,1.40
2018-08-12T09:32:42.073Z,1.30
2018-08-12T09:35:10.506Z,1.40
2018-08-12T09:37:39.025Z,1.40
2018-08-12T09:40:10.745Z,1.50
2018-08-12T09:42:39.402Z,1.20
2018-08-12T09:45:10.037Z,1.37
2018-08-12T09:47:38.805Z,1.50
2018-08-12T09:50:08.072Z,1.50
2018-08-12T09:52:37.566Z,1.37
2018-08-12T09:55:06.406Z,1.27
2018-08-12T09:57:35.428Z,1.50
2018-08-12T10:00:05.353Z,1.30
2018-08-12T10:02:33.811Z,1.40
2018-08-12T10:05:02.437Z,1.13
2018-08-12T10:07:30.959Z,1.20
2018-08-12T10:10:00.635Z,1.17
2018-08-12T10:12:29.058Z,1.30
2018-08-12T10:14:57.530Z,1.20
2018-08-12T10:17:26.633Z,1.15
2018-08-12T10:19:55.118Z,1.30
2018-08-12T10:22:23.699Z,1.30
2018-08-12T10:24:52.307Z,1.20
2018-08-12T10:27:21.780Z,1.20
2018-08-12T10:29:50.502Z,1.20
2018-08-12T10:32:19.022Z,0.87
2018-08-12T10:34:48.319Z,1.10
2018-08-12T10:37:16.870Z,0.97
2018-08-12T10:39:45.361Z,1.00
2018-08-12T10:42:13.971Z,1.10
2018-08-12T10:44:42.588Z,1.10
2018-08-12T10:47:11.069Z,0.97
2018-08-12T10:49:39.550Z,1.10
2018-08-12T10:52:08.075Z,1.03
2018-08-12T10:54:36.800Z,1.00
2018-08-12T10:57:05.281Z,1.00
2018-08-12T10:59:33.789Z,1.03
2018-08-12T11:02:02.378Z,1.00
2018-08-12T11:04:30.798Z,1.23
2018-08-12T11:06:59.214Z,1.00
2018-08-12T11:09:27.678Z,1.10
2018-08-12T11:11:56.196Z,1.07
2018-08-12T11:14:24.675Z,1.13
2018-08-12T11:16:53.051Z,1.00
2018-08-12T11:19:21.505Z,1.07
2018-08-12T11:21:50.095Z,0.97
2018-08-12T11:24:18.635Z,1.20
2018-08-12T11:26:47.052Z,1.00
2018-08-12T11:29:15.497Z,1.13
2018-08-12T11:31:44.025Z,1.30
2018-08-12T11:34:12.449Z,1.13
2018-08-12T11:36:40.874Z,0.90
2018-08-12T11:39:10.796Z,1.23
2018-08-12T11:41:39.245Z,1.30
2018-08-12T11:44:08.058Z,1.03
2018-08-12T11:46:36.567Z,1.10
2018-08-12T11:49:05.695Z,1.17
2018-08-12T11:51:34.209Z,1.13
2018-08-12T11:54:02.802Z,1.10
2018-08-12T11:56:31.318Z,1.30
2018-08-12T11:58:59.838Z,1.10
2018-08-12T12:01:28.395Z,1.23
2018-08-12T12:03:56.874Z,1.27
2018-08-12T12:06:25.337Z,1.20
2018-08-12T12:08:53.921Z,1.10
2018-08-12T12:11:22.489Z,0.90
2018-08-12T12:13:51.141Z,1.20
2018-08-12T12:16:20.652Z,1.23
2018-08-12T12:18:49.168Z,1.30
2018-08-12T12:21:17.538Z,1.13
2018-08-12T12:23:46.108Z,1.10
2018-08-12T12:26:14.549Z,1.10
2018-08-12T12:28:42.977Z,1.10
2018-08-12T12:31:11.389Z,1.00
2018-08-12T12:33:40.269Z,1.10
2018-08-12T12:36:08.774Z,1.00
2018-08-12T12:38:37.186Z,1.10
2018-08-12T12:41:05.687Z,1.20
2018-08-12T12:43:34.225Z,1.10
2018-08-12T12:46:02.977Z,1.40
2018-08-12T12:48:31.856Z,1.20
2018-08-12T12:51:00.285Z,1.00
2018-08-12T12:53:28.666Z,1.20
2018-08-12T12:55:57.400Z,1.30
2018-08-12T12:58:25.793Z,0.97
2018-08-12T13:00:54.318Z,1.30
2018-08-12T13:03:22.794Z,1.30
2018-08-12T13:05:51.236Z,1.00
2018-08-12T13:08:19.669Z,1.17
2018-08-12T13:10:48.497Z,1.10
2018-08-12T13:13:16.937Z,1.10
2018-08-12T13:15:45.393Z,1.00
2018-08-12T13:18:13.882Z,1.20
2018-08-12T13:20:42.285Z,1.23
2018-08-12T13:23:10.978Z,1.10
2018-08-12T13:25:39.484Z,1.10
2018-08-12T13:28:08.497Z,1.30
2018-08-12T13:30:36.932Z,1.20
2018-08-12T13:33:05.686Z,1.23
2018-08-12T13:35:34.093Z,1.40
2018-08-12T13:38:02.525Z,1.10
2018-08-12T13:40:30.909Z,1.20
2018-08-12T13:42:59.349Z,1.00
2018-08-12T13:45:27.765Z,1.20
2018-08-12T13:47:56.302Z,1.20
2018-08-12T13:50:25.086Z,1.00
2018-08-12T13:52:54.107Z,1.10
2018-08-12T13:55:23.738Z,1.00
2018-08-12T13:57:53.630Z,0.93
2018-08-12T14:00:24.803Z,0.90
2018-08-12T14:02:55.612Z,1.10
2018-08-12T14:05:24.258Z,1.10
2018-08-12T14:07:53.862Z,1.30
2018-08-12T14:10:22.605Z,1.10
2018-08-12T14:12:51.112Z,1.00
2018-08-12T14:15:20.309Z,1.30
2018-08-12T14:17:50.081Z,1.50
2018-08-12T14:20:20.003Z,1.03
2018-08-12T14:22:48.585Z,1.20
2018-08-12T14:25:17.461Z,1.37
2018-08-12T14:27:46.266Z,1.40
2018-08-12T14:30:18.933Z,1.40
2018-08-12T14:32:48.150Z,1.40
2018-08-12T14:35:16.606Z,1.20
2018-08-12T14:37:45.590Z,1.30
2018-08-12T14:40:16.459Z,1.20
2018-08-12T14:42:45.165Z,1.40
2018-08-12T14:45:14.961Z,1.10
2018-08-12T14:47:43.698Z,1.10
2018-08-12T14:50:13.849Z,1.30
2018-08-12T14:52:42.710Z,1.20
2018-08-12T14:55:12.226Z,1.30
2018-08-12T14:57:41.402Z,1.20
2018-08-12T15:00:13.253Z,1.50
2018-08-12T15:02:41.695Z,1.50
2018-08-12T15:05:11.274Z,1.47
2018-08-12T15:07:41.218Z,1.33
2018-08-12T15:10:11.207Z,1.50
2018-08-12T15:12:40.718Z,1.50
2018-08-12T15:15:10.802Z,1.50
2018-08-12T15:17:40.203Z,2.10
2018-08-12T15:20:08.649Z,2.20
2018-08-12T15:22:37.307Z,2.20
2018-08-12T15:25:07.754Z,1.90
2018-08-12T15:27:36.591Z,1.90
2018-08-12T15:30:08.235Z,1.60
2018-08-12T15:32:37.111Z,1.67
2018-08-12T15:35:06.125Z,1.90
2018-08-12T15:37:34.848Z,2.60
2018-08-12T15:40:03.373Z,1.60
2018-08-12T15:42:32.212Z,1.57
2018-08-12T15:45:00.669Z,1.50
2018-08-12T15:47:30.091Z,1.57
2018-08-12T15:49:58.851Z,1.90
2018-08-12T15:52:28.000Z,1.87
2018-08-12T15:54:57.413Z,1.90
2018-08-12T15:57:25.837Z,1.90
2018-08-12T15:59:54.232Z,1.90
2018-08-12T16:02:23.382Z,1.90
2018-08-12T16:04:52.220Z,1.70
2018-08-12T16:07:21.615Z,3.47
2018-08-12T16:09:50.023Z,2.00
2018-08-12T16:12:19.081Z,1.80
2018-08-12T16:14:47.858Z,2.70
2018-08-12T16:17:16.378Z,1.80
2018-08-12T16:19:45.189Z,1.90
2018-08-12T16:22:13.644Z,1.80
2018-08-12T16:24:42.790Z,1.80
2018-08-12T16:27:11.924Z,2.10
2018-08-12T16:29:40.801Z,1.83
2018-08-12T16:32:09.353Z,1.90
2018-08-12T16:34:40.350Z,1.90
2018-08-12T16:37:08.773Z,1.90
2018-08-12T16:39:37.238Z,2.03
2018-08-12T16:42:05.789Z,2.10
2018-08-12T16:44:34.250Z,1.77
2018-08-12T16:47:03.714Z,2.10
2018-08-12T16:49:32.175Z,2.20
2018-08-12T16:52:00.756Z,2.00
2018-08-12T16:54:29.208Z,2.00
2018-08-12T16:56:58.004Z,2.20
2018-08-12T16:59:26.781Z,2.40
2018-08-12T17:01:55.184Z,2.40
2018-08-12T17:04:23.670Z,2.60
2018-08-12T17:06:52.126Z,2.30
2018-08-12T17:09:21.219Z,2.87
2018-08-12T17:11:49.977Z,2.23
2018-08-12T17:14:18.496Z,3.10
2018-08-12T17:16:47.857Z,2.50
2018-08-12T17:19:16.651Z,2.17
2018-08-12T17:21:45.768Z,2.93
2018-08-12T17:24:14.837Z,2.67
2018-08-12T17:26:43.593Z,2.30
2018-08-12T17:29:12.345Z,2.53
2018-08-12T17:31:40.784Z,2.30
2018-08-12T17:34:09.986Z,2.23
2018-08-12T17:36:39.018Z,2.40
2018-08-12T17:39:09.813Z,2.20
2018-08-12T17:41:38.702Z,2.47
2018-08-12T17:44:07.152Z,2.10
2018-08-12T17:46:35.681Z,2.80
2018-08-12T17:49:04.833Z,2.57
2018-08-12T17:51:33.206Z,2.80
2018-08-12T17:54:02.727Z,2.77
2018-08-12T17:56:31.786Z,2.77
2018-08-12T17:59:00.221Z,2.70
2018-08-12T18:01:28.634Z,2.80
2018-08-12T18:03:57.453Z,2.30
2018-08-12T18:06:25.936Z,2.60
2018-08-12T18:08:54.918Z,2.90
2018-08-12T18:11:23.781Z,2.50
2018-08-12T18:13:54.486Z,2.40
2018-08-12T18:16:22.901Z,2.33
2018-08-12T18:18:51.516Z,2.30
2018-08-12T18:21:21.297Z,2.20
2018-08-12T18:23:50.265Z,2.47
2018-08-12T18:26:19.919Z,2.50
2018-08-12T18:28:51.373Z,2.50
2018-08-12T18:31:20.561Z,2.57
2018-08-12T18:33:49.032Z,2.87
2018-08-12T18:36:17.866Z,2.40
2018-08-12T18:38:46.634Z,2.70
2018-08-12T18:41:15.845Z,3.30
2018-08-12T18:43:44.252Z,3.37
2018-08-12T18:46:13.103Z,3.23
2018-08-12T18:48:41.970Z,2.93
2018-08-12T18:51:11.878Z,3.30
2018-08-12T18:53:41.412Z,3.57
2018-08-12T18:56:10.255Z,3.10
2018-08-12T18:58:38.726Z,3.23
2018-08-12T19:01:07.709Z,3.33
2018-08-12T19:03:36.126Z,3.40
2018-08-12T19:06:05.452Z,3.30
2018-08-12T19:08:33.908Z,3.27
2018-08-12T19:11:02.349Z,3.83
2018-08-12T19:13:30.922Z,4.10
2018-08-12T19:15:59.353Z,4.63
2018-08-12T19:18:27.832Z,10.07
2018-08-12T19:20:56.293Z,13.97
2018-08-12T19:23:25.650Z,13.60
2018-08-12T19:25:54.493Z,12.60
2018-08-12T19:28:23.003Z,10.53
2018-08-12T19:30:52.057Z,11.23
2018-08-12T19:33:20.586Z,10.50
2018-08-12T19:35:52.121Z,8.70
2018-08-12T19:38:20.633Z,8.77
2018-08-12T19:40:49.077Z,9.27
2018-08-12T19:43:17.858Z,8.57
2018-08-12T19:45:47.103Z,8.30
2018-08-12T19:48:15.962Z,6.60
2018-08-12T19:50:44.781Z,4.97
2018-08-12T19:53:13.539Z,5.57
2018-08-12T19:55:42.006Z,5.60
2018-08-12T19:58:10.629Z,6.07
2018-08-12T20:00:39.406Z,6.10
2018-08-12T20:03:08.393Z,5.73
2018-08-12T20:05:37.196Z,5.57
2018-08-12T20:08:05.733Z,5.93
2018-08-12T20:10:34.438Z,5.33
2018-08-12T20:13:03.216Z,5.30
2018-08-12T20:15:31.600Z,4.30
2018-08-12T20:18:00.382Z,3.70
2018-08-12T20:20:29.090Z,3.67
2018-08-12T20:22:57.938Z,3.27
2018-08-12T20:25:27.157Z,3.23
2018-08-12T20:27:56.195Z,3.40
2018-08-12T20:30:24.920Z,3.20
2018-08-12T20:32:53.340Z,3.00
2018-08-12T20:35:22.405Z,3.10
2018-08-12T20:37:50.962Z,3.30
2018-08-12T20:40:19.408Z,3.27
2018-08-12T20:42:48.074Z,3.13
2018-08-12T20:45:16.892Z,2.93
2018-08-12T20:47:45.402Z,2.70
2018-08-12T20:50:14.831Z,2.77
2018-08-12T20:52:44.438Z,2.80
2018-08-12T20:55:12.860Z,2.93
2018-08-12T20:57:41.290Z,2.70
2018-08-12T21:00:10.957Z,2.80
2018-08-12T21:02:39.596Z,2.90
2018-08-12T21:05:07.993Z,2.50
2018-08-12T21:07:39.715Z,2.70
2018-08-12T21:10:09.292Z,2.50
2018-08-12T21:12:38.087Z,2.77
2018-08-12T21:15:06.764Z,2.53
2018-08-12T21:17:35.393Z,2.80
2018-08-12T21:20:03.833Z,2.87
2018-08-12T21:22:32.362Z,2.60
2018-08-12T21:25:00.824Z,2.70
2018-08-12T21:27:29.406Z,2.80
2018-08-12T21:29:57.855Z,2.87
2018-08-12T21:32:28.107Z,2.50
2018-08-12T21:34:56.874Z,2.53
2018-08-12T21:37:25.360Z,2.80
2018-08-12T21:39:54.112Z,2.70
2018-08-12T21:42:22.613Z,2.70
2018-08-12T21:44:51.002Z,2.73
2018-08-12T21:47:19.436Z,3.00
2018-08-12T21:49:47.840Z,2.70
2018-08-12T21:52:16.225Z,2.70
2018-08-12T21:54:44.682Z,2.80
2018-08-12T21:57:13.066Z,2.73
2018-08-12T21:59:41.516Z,2.70
2018-08-12T22:02:10.029Z,2.67
2018-08-12T22:04:38.416Z,2.80
2018-08-12T22:07:06.877Z,2.77
2018-08-12T22:09:35.331Z,2.83
2018-08-12T22:12:03.811Z,2.83
2018-08-12T22:14:32.188Z,2.90
2018-08-12T22:17:00.611Z,2.70
2018-08-12T22:19:28.997Z,3.20
2018-08-12T22:21:57.434Z,2.90
2018-08-12T22:24:25.884Z,2.90
2018-08-12T22:26:54.312Z,3.30
2018-08-12T22:29:22.720Z,3.07
2018-08-12T22:31:51.180Z,2.90
2018-08-12T22:34:19.655Z,2.90
2018-08-12T22:36:48.074Z,3.00
2018-08-12T22:39:16.595Z,3.27
2018-08-12T22:41:45.049Z,3.30
2018-08-12T22:44:13.544Z,3.10
2018-08-12T22:46:41.957Z,3.47
2018-08-12T22:49:10.403Z,3.10
2018-08-12T22:51:38.839Z,3.00
2018-08-12T22:54:07.857Z,3.33
2018-08-12T22:56:36.311Z,2.90
2018-08-12T22:59:04.778Z,3.10
2018-08-12T23:01:33.456Z,3.10
2018-08-12T23:04:02.022Z,3.10
2018-08-12T23:06:30.463Z,2.83
2018-08-12T23:08:58.869Z,3.20
2018-08-12T23:11:27.311Z,3.30
2018-08-12T23:13:55.761Z,3.30
2018-08-12T23:16:35.401Z,3.23
2018-08-12T23:19:03.815Z,3.00
2018-08-12T23:21:32.250Z,3.00
2018-08-12T23:24:00.605Z,2.80
2018-08-12T23:26:29.011Z,3.20
2018-08-12T23:28:57.459Z,3.10
2018-08-12T23:31:25.893Z,3.50
2018-08-12T23:33:54.466Z,3.23
2018-08-12T23:36:22.852Z,3.37
2018-08-12T23:38:51.298Z,3.20
2018-08-12T23:41:19.669Z,3.37
2018-08-12T23:43:48.083Z,3.23
2018-08-12T23:46:16.519Z,3.40
2018-08-12T23:48:45.062Z,3.27
2018-08-12T23:51:13.505Z,3.30
2018-08-12T23:53:41.912Z,3.30
2018-08-12T23:56:10.819Z,3.93
2018-08-12T23:58:39.285Z,3.30
